West Middletown, Ohio
Current Conditions -  °F | °C
As of 3:35 AM on Saturday 20 Dec 2014 (Local Time) from KMWO Reporting Station
Overcast Overcast  
Wind Chill: 34°   Ceiling: 2100
Heat Index: 34°   Visibility: 10mi
Dew Point: 26°   Wind: 3mph
Humidity: 71%   Direction: 80°E
Pressure: 30.3"   Gusts: NA
Location:  39.5538°N, 84.4567°W
Report Text: KMWO 200835Z AUTO 08003KT 10SM OVC021 01/M04 A3030 RMK AO2 T00121036
Loading
Personal Weather Stations






























Interactive Weather Map New forecast layout! Learn more

10-Day Weather Forecast

Advertisements
Track Severe Weather on mobile